sensor_id;sensor_type;location;lat;lon;timestamp;P1;durP1;ratioP1;P2;durP2;ratioP2
21503;SDS011;10913;51.992;9.228;2023-08-20T00:01:19;12.07;;;10.90;;
21503;SDS011;10913;51.992;9.228;2023-08-20T00:03:49;12.32;;;11.10;;
21503;SDS011;10913;51.992;9.228;2023-08-20T00:06:15;12.15;;;11.05;;
21503;SDS011;10913;51.992;9.228;2023-08-20T00:08:43;11.73;;;10.63;;
21503;SDS011;10913;51.992;9.228;2023-08-20T00:11:08;12.57;;;11.48;;
21503;SDS011;10913;51.992;9.228;2023-08-20T00:13:34;11.68;;;10.65;;
21503;SDS011;10913;51.992;9.228;2023-08-20T00:16:00;12.85;;;11.65;;
21503;SDS011;10913;51.992;9.228;2023-08-20T00:18:26;12.20;;;11.05;;
21503;SDS011;10913;51.992;9.228;2023-08-20T00:20:52;12.00;;;10.80;;
21503;SDS011;10913;51.992;9.228;2023-08-20T00:23:19;11.90;;;10.70;;
21503;SDS011;10913;51.992;9.228;2023-08-20T00:25:44;12.55;;;11.23;;
21503;SDS011;10913;51.992;9.228;2023-08-20T00:28:10;11.88;;;10.68;;
21503;SDS011;10913;51.992;9.228;2023-08-20T00:30:35;12.55;;;11.40;;
21503;SDS011;10913;51.992;9.228;2023-08-20T00:33:01;12.82;;;11.60;;
21503;SDS011;10913;51.992;9.228;2023-08-20T00:35:27;12.40;;;11.13;;
21503;SDS011;10913;51.992;9.228;2023-08-20T00:37:52;13.48;;;12.18;;
21503;SDS011;10913;51.992;9.228;2023-08-20T00:40:17;14.00;;;12.60;;
21503;SDS011;10913;51.992;9.228;2023-08-20T00:42:43;12.90;;;11.70;;
21503;SDS011;10913;51.992;9.228;2023-08-20T00:45:08;13.15;;;11.82;;
21503;SDS011;10913;51.992;9.228;2023-08-20T00:47:34;12.48;;;11.32;;
21503;SDS011;10913;51.992;9.228;2023-08-20T00:50:00;11.82;;;10.82;;
21503;SDS011;10913;51.992;9.228;2023-08-20T00:52:30;12.02;;;10.85;;
21503;SDS011;10913;51.992;9.228;2023-08-20T00:54:56;13.23;;;11.93;;
21503;SDS011;10913;51.992;9.228;2023-08-20T00:57:22;12.82;;;11.52;;
21503;SDS011;10913;51.992;9.228;2023-08-20T00:59:48;12.68;;;11.45;;
21503;SDS011;10913;51.992;9.228;2023-08-20T01:02:15;13.15;;;11.73;;
21503;SDS011;10913;51.992;9.228;2023-08-20T01:04:42;15.48;;;13.88;;
21503;SDS011;10913;51.992;9.228;2023-08-20T01:09:45;15.35;;;13.73;;
21503;SDS011;10913;51.992;9.228;2023-08-20T01:12:13;14.90;;;13.05;;
21503;SDS011;10913;51.992;9.228;2023-08-20T01:14:41;16.77;;;14.98;;
21503;SDS011;10913;51.992;9.228;2023-08-20T01:17:06;19.35;;;16.65;;
21503;SDS011;10913;51.992;9.228;2023-08-20T01:19:32;17.63;;;15.77;;
21503;SDS011;10913;51.992;9.228;2023-08-20T01:27:08;17.38;;;14.95;;
21503;SDS011;10913;51.992;9.228;2023-08-20T01:29:44;17.13;;;14.80;;
21503;SDS011;10913;51.992;9.228;2023-08-20T01:32:10;18.73;;;15.40;;
21503;SDS011;10913;51.992;9.228;2023-08-20T01:34:37;16.33;;;14.63;;
21503;SDS011;10913;51.992;9.228;2023-08-20T01:37:03;17.35;;;14.60;;
21503;SDS011;10913;51.992;9.228;2023-08-20T01:39:28;16.70;;;14.88;;
21503;SDS011;10913;51.992;9.228;2023-08-20T01:41:54;16.67;;;13.75;;
21503;SDS011;10913;51.992;9.228;2023-08-20T01:44:19;15.75;;;12.68;;
21503;SDS011;10913;51.992;9.228;2023-08-20T01:46:45;14.65;;;12.50;;
21503;SDS011;10913;51.992;9.228;2023-08-20T01:49:10;13.43;;;11.80;;
21503;SDS011;10913;51.992;9.228;2023-08-20T01:51:35;16.00;;;13.05;;
21503;SDS011;10913;51.992;9.228;2023-08-20T01:54:01;12.57;;;11.00;;
21503;SDS011;10913;51.992;9.228;2023-08-20T01:56:27;13.30;;;10.52;;
21503;SDS011;10913;51.992;9.228;2023-08-20T01:58:52;13.98;;;10.98;;
21503;SDS011;10913;51.992;9.228;2023-08-20T02:01:18;10.88;;;9.73;;
21503;SDS011;10913;51.992;9.228;2023-08-20T02:03:43;13.13;;;9.60;;
21503;SDS011;10913;51.992;9.228;2023-08-20T02:06:09;10.70;;;9.57;;
21503;SDS011;10913;51.992;9.228;2023-08-20T02:08:34;11.25;;;9.82;;
21503;SDS011;10913;51.992;9.228;2023-08-20T02:11:00;12.63;;;9.77;;
21503;SDS011;10913;51.992;9.228;2023-08-20T02:13:27;10.63;;;8.65;;
21503;SDS011;10913;51.992;9.228;2023-08-20T02:16:02;11.68;;;8.15;;
21503;SDS011;10913;51.992;9.228;2023-08-20T02:18:29;7.78;;;6.97;;
21503;SDS011;10913;51.992;9.228;2023-08-20T02:20:55;11.05;;;8.15;;
21503;SDS011;10913;51.992;9.228;2023-08-20T02:23:21;8.57;;;7.05;;
21503;SDS011;10913;51.992;9.228;2023-08-20T02:25:47;8.13;;;7.13;;
21503;SDS011;10913;51.992;9.228;2023-08-20T02:28:12;9.27;;;7.05;;
21503;SDS011;10913;51.992;9.228;2023-08-20T02:30:41;7.82;;;7.00;;
21503;SDS011;10913;51.992;9.228;2023-08-20T02:33:07;7.22;;;6.32;;
21503;SDS011;10913;51.992;9.228;2023-08-20T02:35:33;7.63;;;6.22;;
21503;SDS011;10913;51.992;9.228;2023-08-20T02:37:58;8.43;;;6.03;;
21503;SDS011;10913;51.992;9.228;2023-08-20T02:40:24;7.75;;;5.75;;
21503;SDS011;10913;51.992;9.228;2023-08-20T02:42:49;6.90;;;6.00;;
21503;SDS011;10913;51.992;9.228;2023-08-20T02:45:14;6.07;;;5.20;;
21503;SDS011;10913;51.992;9.228;2023-08-20T02:47:40;7.03;;;5.28;;
21503;SDS011;10913;51.992;9.228;2023-08-20T02:50:05;8.07;;;5.40;;
21503;SDS011;10913;51.992;9.228;2023-08-20T02:52:31;6.18;;;5.53;;
21503;SDS011;10913;51.992;9.228;2023-08-20T02:54:56;6.72;;;5.10;;
21503;SDS011;10913;51.992;9.228;2023-08-20T02:57:21;6.72;;;5.28;;
21503;SDS011;10913;51.992;9.228;2023-08-20T02:59:47;6.15;;;5.50;;
21503;SDS011;10913;51.992;9.228;2023-08-20T03:02:12;6.43;;;5.40;;
21503;SDS011;10913;51.992;9.228;2023-08-20T03:04:37;8.00;;;5.32;;
21503;SDS011;10913;51.992;9.228;2023-08-20T03:07:03;6.47;;;5.50;;
21503;SDS011;10913;51.992;9.228;2023-08-20T03:09:28;6.40;;;5.05;;
21503;SDS011;10913;51.992;9.228;2023-08-20T03:11:53;7.25;;;4.85;;
21503;SDS011;10913;51.992;9.228;2023-08-20T03:14:19;6.57;;;5.18;;
21503;SDS011;10913;51.992;9.228;2023-08-20T03:16:44;6.72;;;5.10;;
21503;SDS011;10913;51.992;9.228;2023-08-20T03:19:09;5.32;;;4.82;;
21503;SDS011;10913;51.992;9.228;2023-08-20T03:21:35;5.95;;;4.90;;
21503;SDS011;10913;51.992;9.228;2023-08-20T03:24:00;6.43;;;5.18;;
21503;SDS011;10913;51.992;9.228;2023-08-20T03:26:25;5.53;;;5.03;;
21503;SDS011;10913;51.992;9.228;2023-08-20T03:28:51;6.35;;;4.95;;
21503;SDS011;10913;51.992;9.228;2023-08-20T03:31:16;5.95;;;5.30;;
21503;SDS011;10913;51.992;9.228;2023-08-20T03:33:42;6.18;;;5.28;;
21503;SDS011;10913;51.992;9.228;2023-08-20T03:36:07;6.25;;;5.05;;
21503;SDS011;10913;51.992;9.228;2023-08-20T03:38:32;5.45;;;4.95;;
21503;SDS011;10913;51.992;9.228;2023-08-20T03:40:58;7.82;;;5.00;;
21503;SDS011;10913;51.992;9.228;2023-08-20T03:43:23;6.40;;;4.95;;
21503;SDS011;10913;51.992;9.228;2023-08-20T03:45:52;6.13;;;4.63;;
21503;SDS011;10913;51.992;9.228;2023-08-20T03:48:18;9.85;;;5.38;;
21503;SDS011;10913;51.992;9.228;2023-08-20T03:50:43;5.93;;;5.10;;
21503;SDS011;10913;51.992;9.228;2023-08-20T03:53:09;5.65;;;5.07;;
21503;SDS011;10913;51.992;9.228;2023-08-20T03:55:34;6.85;;;4.63;;
21503;SDS011;10913;51.992;9.228;2023-08-20T03:57:59;6.45;;;5.07;;
21503;SDS011;10913;51.992;9.228;2023-08-20T04:00:25;6.75;;;5.30;;
21503;SDS011;10913;51.992;9.228;2023-08-20T04:02:50;5.60;;;4.85;;
21503;SDS011;10913;51.992;9.228;2023-08-20T04:05:16;7.65;;;5.28;;
21503;SDS011;10913;51.992;9.228;2023-08-20T04:07:42;5.75;;;5.13;;
21503;SDS011;10913;51.992;9.228;2023-08-20T04:10:07;6.35;;;4.80;;
21503;SDS011;10913;51.992;9.228;2023-08-20T04:12:33;5.13;;;4.63;;
21503;SDS011;10913;51.992;9.228;2023-08-20T04:14:58;5.38;;;4.50;;
21503;SDS011;10913;51.992;9.228;2023-08-20T04:17:23;6.68;;;4.53;;
21503;SDS011;10913;51.992;9.228;2023-08-20T04:19:49;5.20;;;4.50;;
21503;SDS011;10913;51.992;9.228;2023-08-20T04:22:15;5.55;;;4.30;;
21503;SDS011;10913;51.992;9.228;2023-08-20T04:24:40;5.13;;;4.63;;
21503;SDS011;10913;51.992;9.228;2023-08-20T04:27:05;9.68;;;4.57;;
21503;SDS011;10913;51.992;9.228;2023-08-20T04:29:31;6.68;;;5.10;;
21503;SDS011;10913;51.992;9.228;2023-08-20T04:31:56;5.93;;;4.55;;
21503;SDS011;10913;51.992;9.228;2023-08-20T04:34:21;5.20;;;4.70;;
21503;SDS011;10913;51.992;9.228;2023-08-20T04:36:47;6.43;;;5.28;;
21503;SDS011;10913;51.992;9.228;2023-08-20T04:39:12;6.60;;;4.72;;
21503;SDS011;10913;51.992;9.228;2023-08-20T04:41:37;7.18;;;4.97;;
21503;SDS011;10913;51.992;9.228;2023-08-20T04:44:03;6.80;;;5.43;;
21503;SDS011;10913;51.992;9.228;2023-08-20T04:46:28;7.28;;;5.40;;
21503;SDS011;10913;51.992;9.228;2023-08-20T04:48:54;6.82;;;5.75;;
21503;SDS011;10913;51.992;9.228;2023-08-20T04:51:19;7.07;;;5.70;;
21503;SDS011;10913;51.992;9.228;2023-08-20T04:53:44;7.88;;;5.30;;
21503;SDS011;10913;51.992;9.228;2023-08-20T04:56:12;6.68;;;5.32;;
21503;SDS011;10913;51.992;9.228;2023-08-20T04:58:38;7.38;;;5.60;;
21503;SDS011;10913;51.992;9.228;2023-08-20T05:01:03;6.72;;;5.47;;
21503;SDS011;10913;51.992;9.228;2023-08-20T05:03:28;5.97;;;5.32;;
21503;SDS011;10913;51.992;9.228;2023-08-20T05:05:54;6.25;;;5.28;;
21503;SDS011;10913;51.992;9.228;2023-08-20T05:08:19;6.15;;;5.50;;
21503;SDS011;10913;51.992;9.228;2023-08-20T05:10:44;5.93;;;5.32;;
21503;SDS011;10913;51.992;9.228;2023-08-20T05:13:10;6.85;;;5.63;;
21503;SDS011;10913;51.992;9.228;2023-08-20T05:15:35;6.80;;;5.40;;
21503;SDS011;10913;51.992;9.228;2023-08-20T05:18:01;5.65;;;5.05;;
21503;SDS011;10913;51.992;9.228;2023-08-20T05:20:26;5.78;;;5.28;;
21503;SDS011;10913;51.992;9.228;2023-08-20T05:22:51;5.40;;;4.90;;
21503;SDS011;10913;51.992;9.228;2023-08-20T05:25:17;5.70;;;5.20;;
21503;SDS011;10913;51.992;9.228;2023-08-20T05:27:42;5.75;;;4.63;;
21503;SDS011;10913;51.992;9.228;2023-08-20T05:30:07;6.10;;;5.10;;
21503;SDS011;10913;51.992;9.228;2023-08-20T05:32:36;7.18;;;4.78;;
21503;SDS011;10913;51.992;9.228;2023-08-20T05:35:01;7.13;;;5.05;;
21503;SDS011;10913;51.992;9.228;2023-08-20T05:37:26;7.43;;;5.13;;
21503;SDS011;10913;51.992;9.228;2023-08-20T05:39:52;7.22;;;5.32;;
21503;SDS011;10913;51.992;9.228;2023-08-20T05:42:17;6.57;;;5.88;;
21503;SDS011;10913;51.992;9.228;2023-08-20T05:44:42;6.68;;;5.43;;
21503;SDS011;10913;51.992;9.228;2023-08-20T05:47:08;6.95;;;5.32;;
21503;SDS011;10913;51.992;9.228;2023-08-20T05:49:33;6.95;;;6.05;;
21503;SDS011;10913;51.992;9.228;2023-08-20T05:51:59;9.68;;;6.43;;
21503;SDS011;10913;51.992;9.228;2023-08-20T05:54:24;8.43;;;6.07;;
21503;SDS011;10913;51.992;9.228;2023-08-20T05:56:49;9.57;;;7.00;;
21503;SDS011;10913;51.992;9.228;2023-08-20T05:59:15;7.28;;;6.47;;
21503;SDS011;10913;51.992;9.228;2023-08-20T06:01:40;8.90;;;6.60;;
21503;SDS011;10913;51.992;9.228;2023-08-20T06:04:05;9.50;;;6.03;;
21503;SDS011;10913;51.992;9.228;2023-08-20T06:06:31;6.95;;;5.38;;
21503;SDS011;10913;51.992;9.228;2023-08-20T06:08:56;7.20;;;5.80;;
21503;SDS011;10913;51.992;9.228;2023-08-20T06:11:21;6.90;;;5.35;;
21503;SDS011;10913;51.992;9.228;2023-08-20T06:13:47;7.05;;;5.30;;
21503;SDS011;10913;51.992;9.228;2023-08-20T06:16:12;6.88;;;4.90;;
21503;SDS011;10913;51.992;9.228;2023-08-20T06:18:37;7.80;;;4.65;;
21503;SDS011;10913;51.992;9.228;2023-08-20T06:21:03;5.88;;;4.75;;
21503;SDS011;10913;51.992;9.228;2023-08-20T06:23:29;6.43;;;4.72;;
21503;SDS011;10913;51.992;9.228;2023-08-20T06:25:54;7.10;;;4.47;;
21503;SDS011;10913;51.992;9.228;2023-08-20T06:28:20;5.60;;;3.95;;
21503;SDS011;10913;51.992;9.228;2023-08-20T06:30:45;6.38;;;3.63;;
21503;SDS011;10913;51.992;9.228;2023-08-20T06:33:11;5.15;;;3.65;;
21503;SDS011;10913;51.992;9.228;2023-08-20T06:35:37;4.07;;;3.28;;
21503;SDS011;10913;51.992;9.228;2023-08-20T06:38:02;6.00;;;3.13;;
21503;SDS011;10913;51.992;9.228;2023-08-20T06:40:28;5.50;;;3.33;;
21503;SDS011;10913;51.992;9.228;2023-08-20T06:42:53;5.18;;;3.38;;
21503;SDS011;10913;51.992;9.228;2023-08-20T06:45:19;5.00;;;3.10;;
21503;SDS011;10913;51.992;9.228;2023-08-20T06:47:44;4.25;;;3.10;;
21503;SDS011;10913;51.992;9.228;2023-08-20T06:50:09;5.35;;;3.20;;
21503;SDS011;10913;51.992;9.228;2023-08-20T06:52:35;4.55;;;3.50;;
21503;SDS011;10913;51.992;9.228;2023-08-20T06:55:00;3.75;;;2.95;;
21503;SDS011;10913;51.992;9.228;2023-08-20T06:57:26;3.70;;;2.50;;
21503;SDS011;10913;51.992;9.228;2023-08-20T06:59:51;3.15;;;2.60;;
21503;SDS011;10913;51.992;9.228;2023-08-20T07:02:16;4.47;;;2.80;;
21503;SDS011;10913;51.992;9.228;2023-08-20T07:04:42;3.90;;;2.90;;
21503;SDS011;10913;51.992;9.228;2023-08-20T07:07:07;3.63;;;2.47;;
21503;SDS011;10913;51.992;9.228;2023-08-20T07:09:33;4.53;;;2.80;;
21503;SDS011;10913;51.992;9.228;2023-08-20T07:11:58;3.88;;;2.80;;
21503;SDS011;10913;51.992;9.228;2023-08-20T07:14:24;3.05;;;2.50;;
21503;SDS011;10913;51.992;9.228;2023-08-20T07:16:49;5.20;;;2.75;;
21503;SDS011;10913;51.992;9.228;2023-08-20T07:19:14;4.55;;;2.78;;
21503;SDS011;10913;51.992;9.228;2023-08-20T07:21:40;4.47;;;2.75;;
21503;SDS011;10913;51.992;9.228;2023-08-20T07:24:05;2.92;;;2.53;;
21503;SDS011;10913;51.992;9.228;2023-08-20T07:26:31;4.47;;;2.75;;
21503;SDS011;10913;51.992;9.228;2023-08-20T07:28:56;4.35;;;2.75;;
21503;SDS011;10913;51.992;9.228;2023-08-20T07:31:22;4.22;;;2.83;;
21503;SDS011;10913;51.992;9.228;2023-08-20T07:33:49;3.55;;;2.58;;
21503;SDS011;10913;51.992;9.228;2023-08-20T07:36:16;3.20;;;2.50;;
21503;SDS011;10913;51.992;9.228;2023-08-20T07:38:42;2.63;;;2.42;;
21503;SDS011;10913;51.992;9.228;2023-08-20T07:41:08;3.50;;;2.40;;
21503;SDS011;10913;51.992;9.228;2023-08-20T07:43:37;3.92;;;2.05;;
21503;SDS011;10913;51.992;9.228;2023-08-20T07:46:03;4.05;;;2.10;;
21503;SDS011;10913;51.992;9.228;2023-08-20T07:48:29;3.97;;;2.28;;
21503;SDS011;10913;51.992;9.228;2023-08-20T07:50:55;4.10;;;2.03;;
21503;SDS011;10913;51.992;9.228;2023-08-20T07:53:20;3.28;;;1.95;;
21503;SDS011;10913;51.992;9.228;2023-08-20T07:55:45;4.72;;;2.10;;
21503;SDS011;10913;51.992;9.228;2023-08-20T07:58:11;2.72;;;2.38;;
21503;SDS011;10913;51.992;9.228;2023-08-20T08:00:36;3.72;;;2.10;;
21503;SDS011;10913;51.992;9.228;2023-08-20T08:03:01;3.42;;;2.13;;
21503;SDS011;10913;51.992;9.228;2023-08-20T08:05:27;3.47;;;2.38;;
21503;SDS011;10913;51.992;9.228;2023-08-20T08:07:53;3.25;;;2.28;;
21503;SDS011;10913;51.992;9.228;2023-08-20T08:10:19;4.03;;;2.25;;
21503;SDS011;10913;51.992;9.228;2023-08-20T08:12:44;3.03;;;2.35;;
21503;SDS011;10913;51.992;9.228;2023-08-20T08:15:10;3.95;;;2.80;;
21503;SDS011;10913;51.992;9.228;2023-08-20T08:17:36;3.10;;;2.60;;
21503;SDS011;10913;51.992;9.228;2023-08-20T08:20:01;2.88;;;2.47;;
21503;SDS011;10913;51.992;9.228;2023-08-20T08:22:28;4.97;;;3.33;;
21503;SDS011;10913;51.992;9.228;2023-08-20T08:24:53;4.00;;;2.88;;
21503;SDS011;10913;51.992;9.228;2023-08-20T08:27:18;4.05;;;3.25;;
21503;SDS011;10913;51.992;9.228;2023-08-20T08:29:44;5.90;;;3.28;;
21503;SDS011;10913;51.992;9.228;2023-08-20T08:32:10;4.72;;;3.42;;
21503;SDS011;10913;51.992;9.228;2023-08-20T08:34:35;4.93;;;3.53;;
21503;SDS011;10913;51.992;9.228;2023-08-20T08:37:01;3.95;;;3.28;;
21503;SDS011;10913;51.992;9.228;2023-08-20T08:39:26;5.07;;;3.55;;
21503;SDS011;10913;51.992;9.228;2023-08-20T08:41:52;5.28;;;4.30;;
21503;SDS011;10913;51.992;9.228;2023-08-20T08:46:51;4.88;;;3.75;;
21503;SDS011;10913;51.992;9.228;2023-08-20T08:49:17;3.85;;;3.53;;
21503;SDS011;10913;51.992;9.228;2023-08-20T08:51:44;5.07;;;4.03;;
21503;SDS011;10913;51.992;9.228;2023-08-20T08:54:11;4.82;;;4.32;;
21503;SDS011;10913;51.992;9.228;2023-08-20T08:56:38;4.70;;;3.85;;
21503;SDS011;10913;51.992;9.228;2023-08-20T08:59:04;4.22;;;3.83;;
21503;SDS011;10913;51.992;9.228;2023-08-20T09:01:30;5.18;;;3.97;;
21503;SDS011;10913;51.992;9.228;2023-08-20T09:03:56;5.07;;;4.57;;
21503;SDS011;10913;51.992;9.228;2023-08-20T09:06:22;4.18;;;3.88;;
21503;SDS011;10913;51.992;9.228;2023-08-20T09:08:47;4.93;;;4.38;;
21503;SDS011;10913;51.992;9.228;2023-08-20T09:11:12;4.90;;;4.35;;
21503;SDS011;10913;51.992;9.228;2023-08-20T09:13:39;5.97;;;4.60;;
21503;SDS011;10913;51.992;9.228;2023-08-20T09:16:06;6.70;;;5.63;;
21503;SDS011;10913;51.992;9.228;2023-08-20T09:18:37;7.40;;;6.63;;
21503;SDS011;10913;51.992;9.228;2023-08-20T09:21:06;7.72;;;6.90;;
21503;SDS011;10913;51.992;9.228;2023-08-20T09:23:32;6.72;;;5.10;;
21503;SDS011;10913;51.992;9.228;2023-08-20T09:25:57;5.60;;;5.10;;
21503;SDS011;10913;51.992;9.228;2023-08-20T09:28:26;8.15;;;5.78;;
21503;SDS011;10913;51.992;9.228;2023-08-20T09:30:56;6.40;;;5.78;;
21503;SDS011;10913;51.992;9.228;2023-08-20T09:33:26;7.72;;;6.05;;
21503;SDS011;10913;51.992;9.228;2023-08-20T09:35:53;7.53;;;6.60;;
21503;SDS011;10913;51.992;9.228;2023-08-20T09:38:19;6.97;;;6.28;;
21503;SDS011;10913;51.992;9.228;2023-08-20T09:40:47;7.72;;;6.50;;
21503;SDS011;10913;51.992;9.228;2023-08-20T09:43:14;9.63;;;7.47;;
21503;SDS011;10913;51.992;9.228;2023-08-20T09:45:41;7.38;;;6.68;;
21503;SDS011;10913;51.992;9.228;2023-08-20T09:48:09;7.78;;;6.90;;
21503;SDS011;10913;51.992;9.228;2023-08-20T09:50:35;8.45;;;7.60;;
21503;SDS011;10913;51.992;9.228;2023-08-20T09:53:06;7.00;;;6.40;;
21503;SDS011;10913;51.992;9.228;2023-08-20T09:55:36;6.97;;;6.38;;
21503;SDS011;10913;51.992;9.228;2023-08-20T09:58:06;7.63;;;5.75;;
21503;SDS011;10913;51.992;9.228;2023-08-20T10:00:32;6.15;;;5.57;;
21503;SDS011;10913;51.992;9.228;2023-08-20T10:02:58;7.32;;;5.47;;
21503;SDS011;10913;51.992;9.228;2023-08-20T10:05:24;5.15;;;4.75;;
21503;SDS011;10913;51.992;9.228;2023-08-20T10:07:50;5.20;;;4.80;;
21503;SDS011;10913;51.992;9.228;2023-08-20T10:10:16;5.63;;;5.13;;
21503;SDS011;10913;51.992;9.228;2023-08-20T10:12:42;5.35;;;4.93;;
21503;SDS011;10913;51.992;9.228;2023-08-20T10:15:10;5.20;;;4.70;;
21503;SDS011;10913;51.992;9.228;2023-08-20T10:17:37;4.50;;;4.10;;
21503;SDS011;10913;51.992;9.228;2023-08-20T10:20:04;4.85;;;4.45;;
21503;SDS011;10913;51.992;9.228;2023-08-20T10:22:38;4.18;;;3.78;;
21503;SDS011;10913;51.992;9.228;2023-08-20T10:25:05;4.72;;;3.95;;
21503;SDS011;10913;51.992;9.228;2023-08-20T10:27:31;4.60;;;4.20;;
21503;SDS011;10913;51.992;9.228;2023-08-20T10:29:58;4.38;;;4.00;;
21503;SDS011;10913;51.992;9.228;2023-08-20T10:35:09;4.43;;;3.97;;
21503;SDS011;10913;51.992;9.228;2023-08-20T10:37:35;4.53;;;4.13;;
21503;SDS011;10913;51.992;9.228;2023-08-20T10:40:02;4.53;;;4.18;;
21503;SDS011;10913;51.992;9.228;2023-08-20T10:42:29;5.05;;;4.65;;
21503;SDS011;10913;51.992;9.228;2023-08-20T10:50:02;5.00;;;4.50;;
21503;SDS011;10913;51.992;9.228;2023-08-20T10:52:27;5.25;;;4.78;;
21503;SDS011;10913;51.992;9.228;2023-08-20T10:54:53;4.97;;;4.47;;
21503;SDS011;10913;51.992;9.228;2023-08-20T10:57:21;5.15;;;4.75;;
21503;SDS011;10913;51.992;9.228;2023-08-20T10:59:56;5.45;;;4.95;;
21503;SDS011;10913;51.992;9.228;2023-08-20T11:02:23;5.70;;;4.90;;
21503;SDS011;10913;51.992;9.228;2023-08-20T11:04:49;4.90;;;4.50;;
21503;SDS011;10913;51.992;9.228;2023-08-20T11:07:17;5.43;;;4.95;;
21503;SDS011;10913;51.992;9.228;2023-08-20T11:09:43;5.25;;;4.75;;
21503;SDS011;10913;51.992;9.228;2023-08-20T11:12:11;5.80;;;5.30;;
21503;SDS011;10913;51.992;9.228;2023-08-20T11:14:39;5.57;;;5.05;;
21503;SDS011;10913;51.992;9.228;2023-08-20T11:17:04;6.07;;;5.47;;
21503;SDS011;10913;51.992;9.228;2023-08-20T11:19:29;5.72;;;5.22;;
21503;SDS011;10913;51.992;9.228;2023-08-20T11:21:55;6.00;;;5.40;;
21503;SDS011;10913;51.992;9.228;2023-08-20T11:24:20;5.22;;;4.72;;
21503;SDS011;10913;51.992;9.228;2023-08-20T11:26:46;5.70;;;4.90;;
21503;SDS011;10913;51.992;9.228;2023-08-20T11:29:13;6.40;;;5.80;;
21503;SDS011;10913;51.992;9.228;2023-08-20T11:31:44;5.82;;;5.13;;
21503;SDS011;10913;51.992;9.228;2023-08-20T11:34:11;5.57;;;5.05;;
21503;SDS011;10913;51.992;9.228;2023-08-20T11:36:37;6.22;;;5.63;;
21503;SDS011;10913;51.992;9.228;2023-08-20T11:39:04;5.65;;;5.18;;
21503;SDS011;10913;51.992;9.228;2023-08-20T11:41:30;5.40;;;4.95;;
21503;SDS011;10913;51.992;9.228;2023-08-20T11:43:56;5.55;;;5.05;;
21503;SDS011;10913;51.992;9.228;2023-08-20T11:46:22;5.30;;;4.82;;
21503;SDS011;10913;51.992;9.228;2023-08-20T11:51:37;6.05;;;5.32;;
21503;SDS011;10913;51.992;9.228;2023-08-20T11:54:15;6.10;;;5.60;;
21503;SDS011;10913;51.992;9.228;2023-08-20T11:56:45;6.22;;;5.70;;
21503;SDS011;10913;51.992;9.228;2023-08-20T11:59:12;5.90;;;5.40;;
21503;SDS011;10913;51.992;9.228;2023-08-20T12:01:38;5.70;;;5.20;;
21503;SDS011;10913;51.992;9.228;2023-08-20T12:04:04;6.00;;;5.28;;
21503;SDS011;10913;51.992;9.228;2023-08-20T12:06:30;5.78;;;5.28;;
21503;SDS011;10913;51.992;9.228;2023-08-20T12:08:57;5.60;;;5.20;;
21503;SDS011;10913;51.992;9.228;2023-08-20T12:11:26;6.50;;;5.90;;
21503;SDS011;10913;51.992;9.228;2023-08-20T12:13:53;5.72;;;5.22;;
21503;SDS011;10913;51.992;9.228;2023-08-20T12:16:21;5.57;;;5.07;;
21503;SDS011;10913;51.992;9.228;2023-08-20T12:18:47;5.88;;;5.38;;
21503;SDS011;10913;51.992;9.228;2023-08-20T12:21:13;6.00;;;5.50;;
21503;SDS011;10913;51.992;9.228;2023-08-20T12:23:39;5.72;;;5.22;;
21503;SDS011;10913;51.992;9.228;2023-08-20T12:26:04;5.97;;;5.38;;
21503;SDS011;10913;51.992;9.228;2023-08-20T12:28:29;5.70;;;5.30;;
21503;SDS011;10913;51.992;9.228;2023-08-20T12:30:55;5.82;;;5.32;;
21503;SDS011;10913;51.992;9.228;2023-08-20T12:33:20;5.93;;;5.43;;
21503;SDS011;10913;51.992;9.228;2023-08-20T12:35:46;6.07;;;5.57;;
21503;SDS011;10913;51.992;9.228;2023-08-20T12:38:11;6.35;;;5.78;;
21503;SDS011;10913;51.992;9.228;2023-08-20T12:40:37;5.97;;;5.47;;
21503;SDS011;10913;51.992;9.228;2023-08-20T12:43:02;6.03;;;5.53;;
21503;SDS011;10913;51.992;9.228;2023-08-20T12:45:28;5.78;;;5.28;;
21503;SDS011;10913;51.992;9.228;2023-08-20T12:47:53;5.63;;;5.18;;
21503;SDS011;10913;51.992;9.228;2023-08-20T12:50:19;5.93;;;5.43;;
21503;SDS011;10913;51.992;9.228;2023-08-20T12:52:44;5.97;;;5.47;;
21503;SDS011;10913;51.992;9.228;2023-08-20T12:55:12;6.03;;;5.47;;
21503;SDS011;10913;51.992;9.228;2023-08-20T12:57:41;5.80;;;5.30;;
21503;SDS011;10913;51.992;9.228;2023-08-20T13:00:21;5.40;;;4.90;;
21503;SDS011;10913;51.992;9.228;2023-08-20T13:02:51;5.28;;;4.78;;
21503;SDS011;10913;51.992;9.228;2023-08-20T13:05:17;5.10;;;4.70;;
21503;SDS011;10913;51.992;9.228;2023-08-20T13:07:44;5.30;;;4.90;;
21503;SDS011;10913;51.992;9.228;2023-08-20T13:10:09;5.35;;;4.95;;
21503;SDS011;10913;51.992;9.228;2023-08-20T13:12:35;5.22;;;4.82;;
21503;SDS011;10913;51.992;9.228;2023-08-20T13:15:01;5.82;;;4.90;;
21503;SDS011;10913;51.992;9.228;2023-08-20T13:17:28;5.80;;;5.30;;
21503;SDS011;10913;51.992;9.228;2023-08-20T13:19:55;5.38;;;4.88;;
21503;SDS011;10913;51.992;9.228;2023-08-20T13:22:21;5.28;;;4.88;;
21503;SDS011;10913;51.992;9.228;2023-08-20T13:24:46;5.70;;;5.20;;
21503;SDS011;10913;51.992;9.228;2023-08-20T13:27:12;5.63;;;5.13;;
21503;SDS011;10913;51.992;9.228;2023-08-20T13:29:37;4.93;;;4.53;;
21503;SDS011;10913;51.992;9.228;2023-08-20T13:32:03;5.93;;;5.30;;
21503;SDS011;10913;51.992;9.228;2023-08-20T13:34:29;6.00;;;4.80;;
21503;SDS011;10913;51.992;9.228;2023-08-20T13:36:54;5.10;;;4.70;;
21503;SDS011;10913;51.992;9.228;2023-08-20T13:39:19;5.10;;;4.70;;
21503;SDS011;10913;51.992;9.228;2023-08-20T13:41:46;5.55;;;5.05;;
21503;SDS011;10913;51.992;9.228;2023-08-20T13:44:13;5.90;;;5.35;;
21503;SDS011;10913;51.992;9.228;2023-08-20T13:46:38;5.82;;;5.20;;
21503;SDS011;10913;51.992;9.228;2023-08-20T13:49:04;5.43;;;4.93;;
21503;SDS011;10913;51.992;9.228;2023-08-20T13:51:29;5.70;;;5.20;;
21503;SDS011;10913;51.992;9.228;2023-08-20T13:53:55;5.22;;;4.82;;
21503;SDS011;10913;51.992;9.228;2023-08-20T13:56:20;5.18;;;4.78;;
21503;SDS011;10913;51.992;9.228;2023-08-20T13:58:46;5.55;;;5.05;;
21503;SDS011;10913;51.992;9.228;2023-08-20T14:01:11;5.60;;;5.20;;
21503;SDS011;10913;51.992;9.228;2023-08-20T14:03:38;5.63;;;5.10;;
21503;SDS011;10913;51.992;9.228;2023-08-20T14:06:03;5.80;;;5.38;;
21503;SDS011;10913;51.992;9.228;2023-08-20T14:08:29;5.80;;;5.30;;
21503;SDS011;10913;51.992;9.228;2023-08-20T14:10:54;5.72;;;5.32;;
21503;SDS011;10913;51.992;9.228;2023-08-20T14:13:19;5.78;;;5.10;;
21503;SDS011;10913;51.992;9.228;2023-08-20T14:15:45;5.10;;;4.70;;
21503;SDS011;10913;51.992;9.228;2023-08-20T14:18:10;5.07;;;4.68;;
21503;SDS011;10913;51.992;9.228;2023-08-20T14:20:35;5.18;;;4.75;;
21503;SDS011;10913;51.992;9.228;2023-08-20T14:23:01;5.60;;;5.10;;
21503;SDS011;10913;51.992;9.228;2023-08-20T14:25:27;5.45;;;4.95;;
21503;SDS011;10913;51.992;9.228;2023-08-20T14:27:52;5.65;;;5.15;;
21503;SDS011;10913;51.992;9.228;2023-08-20T14:30:17;5.50;;;5.10;;
21503;SDS011;10913;51.992;9.228;2023-08-20T14:32:43;6.22;;;5.50;;
21503;SDS011;10913;51.992;9.228;2023-08-20T14:35:09;6.28;;;5.68;;
21503;SDS011;10913;51.992;9.228;2023-08-20T14:37:35;5.95;;;5.38;;
21503;SDS011;10913;51.992;9.228;2023-08-20T14:40:00;6.55;;;5.57;;
21503;SDS011;10913;51.992;9.228;2023-08-20T14:42:26;5.82;;;5.10;;
21503;SDS011;10913;51.992;9.228;2023-08-20T14:44:51;5.90;;;5.40;;
21503;SDS011;10913;51.992;9.228;2023-08-20T14:47:18;6.20;;;5.70;;
21503;SDS011;10913;51.992;9.228;2023-08-20T14:49:44;5.93;;;5.43;;
21503;SDS011;10913;51.992;9.228;2023-08-20T14:52:09;5.97;;;5.47;;
21503;SDS011;10913;51.992;9.228;2023-08-20T14:54:35;5.22;;;4.72;;
21503;SDS011;10913;51.992;9.228;2023-08-20T14:57:00;5.75;;;5.28;;